Terminal Aerodrome Forecast
Issued by NWS Twin Cities, MN

Home | Current Version | Previous Version | Graphics & Text | Print | Product List | Glossary On
Versions: 1 2 3 4 5 6 7 8 9 10 11 12 13 14 15 16 17 18 19 20 21 22 23 24 25 26 27 28 29 30 31 32 33 34 35
000
FTUS43 KMPX 170500
TAFMSP
TAF
KMSP 170540Z 1706/1812 28012G19KT P6SM SCT030 BKN050
     FM170700 29015G23KT P6SM BKN020 OVC050
      TEMPO 1711/1715 BKN015
     FM171500 31018G26KT P6SM OVC025
     FM172200 33013G21KT P6SM OVC040
     FM180300 33010KT P6SM OVC040=

USA.gov is the U.S. government's official web portal to all federal, state and local government web resources and services.